sensor_id;sensor_type;location;lat;lon;timestamp;temperature;humidity
29453;DHT22;16424;50.956;5.320;2022-12-24T00:01:08;12.00;99.90
29453;DHT22;16424;50.956;5.320;2022-12-24T00:03:35;12.00;99.90
29453;DHT22;16424;50.956;5.320;2022-12-24T00:06:06;12.10;99.90
29453;DHT22;16424;50.956;5.320;2022-12-24T00:08:32;12.00;99.90
29453;DHT22;16424;50.956;5.320;2022-12-24T00:10:57;12.00;99.90
29453;DHT22;16424;50.956;5.320;2022-12-24T00:13:23;11.90;99.90
29453;DHT22;16424;50.956;5.320;2022-12-24T00:15:49;11.90;99.90
29453;DHT22;16424;50.956;5.320;2022-12-24T00:18:15;12.00;99.90
29453;DHT22;16424;50.956;5.320;2022-12-24T00:20:41;11.90;99.90
29453;DHT22;16424;50.956;5.320;2022-12-24T00:23:06;11.90;99.90
29453;DHT22;16424;50.956;5.320;2022-12-24T00:25:32;11.90;99.90
29453;DHT22;16424;50.956;5.320;2022-12-24T00:27:58;12.00;99.90
29453;DHT22;16424;50.956;5.320;2022-12-24T00:30:23;12.10;99.90
29453;DHT22;16424;50.956;5.320;2022-12-24T00:32:49;11.90;99.90
29453;DHT22;16424;50.956;5.320;2022-12-24T00:35:14;11.90;99.90
29453;DHT22;16424;50.956;5.320;2022-12-24T00:37:40;11.90;99.90
29453;DHT22;16424;50.956;5.320;2022-12-24T00:40:06;12.00;99.90
29453;DHT22;16424;50.956;5.320;2022-12-24T00:42:32;12.10;99.90
29453;DHT22;16424;50.956;5.320;2022-12-24T00:44:58;12.00;99.90
29453;DHT22;16424;50.956;5.320;2022-12-24T00:47:23;11.90;99.90
29453;DHT22;16424;50.956;5.320;2022-12-24T00:49:49;11.90;99.90
29453;DHT22;16424;50.956;5.320;2022-12-24T00:52:14;11.70;99.90
29453;DHT22;16424;50.956;5.320;2022-12-24T00:54:40;11.80;99.90
29453;DHT22;16424;50.956;5.320;2022-12-24T00:57:06;11.60;99.90
29453;DHT22;16424;50.956;5.320;2022-12-24T00:59:31;11.50;99.90
29453;DHT22;16424;50.956;5.320;2022-12-24T01:01:57;11.50;99.90
29453;DHT22;16424;50.956;5.320;2022-12-24T01:04:22;11.60;99.90
29453;DHT22;16424;50.956;5.320;2022-12-24T01:07:06;11.70;99.90
29453;DHT22;16424;50.956;5.320;2022-12-24T01:09:32;11.70;99.90
29453;DHT22;16424;50.956;5.320;2022-12-24T01:11:58;11.70;99.90
29453;DHT22;16424;50.956;5.320;2022-12-24T01:14:23;11.60;99.90
29453;DHT22;16424;50.956;5.320;2022-12-24T01:16:49;11.70;99.90
29453;DHT22;16424;50.956;5.320;2022-12-24T01:19:15;11.60;99.90
29453;DHT22;16424;50.956;5.320;2022-12-24T01:21:40;11.60;99.90
29453;DHT22;16424;50.956;5.320;2022-12-24T01:24:06;11.60;99.90
29453;DHT22;16424;50.956;5.320;2022-12-24T01:26:32;11.60;99.90
29453;DHT22;16424;50.956;5.320;2022-12-24T01:28:58;11.60;99.90
29453;DHT22;16424;50.956;5.320;2022-12-24T01:31:24;11.70;99.90
29453;DHT22;16424;50.956;5.320;2022-12-24T01:33:49;11.70;99.90
29453;DHT22;16424;50.956;5.320;2022-12-24T01:36:15;11.80;99.90
29453;DHT22;16424;50.956;5.320;2022-12-24T01:38:41;11.80;99.90
29453;DHT22;16424;50.956;5.320;2022-12-24T01:41:13;11.80;99.90
29453;DHT22;16424;50.956;5.320;2022-12-24T01:43:58;11.60;99.90
29453;DHT22;16424;50.956;5.320;2022-12-24T01:46:29;11.70;99.90
29453;DHT22;16424;50.956;5.320;2022-12-24T01:48:58;11.70;99.90
29453;DHT22;16424;50.956;5.320;2022-12-24T01:51:51;11.70;99.90
29453;DHT22;16424;50.956;5.320;2022-12-24T01:56:59;11.60;99.90
29453;DHT22;16424;50.956;5.320;2022-12-24T01:59:27;11.60;99.90
29453;DHT22;16424;50.956;5.320;2022-12-24T02:01:53;11.60;99.90
29453;DHT22;16424;50.956;5.320;2022-12-24T02:04:37;11.80;99.90
29453;DHT22;16424;50.956;5.320;2022-12-24T02:07:04;11.60;99.90
29453;DHT22;16424;50.956;5.320;2022-12-24T02:09:31;11.50;99.90
29453;DHT22;16424;50.956;5.320;2022-12-24T02:11:59;11.50;99.90
29453;DHT22;16424;50.956;5.320;2022-12-24T02:14:26;11.50;99.90
29453;DHT22;16424;50.956;5.320;2022-12-24T02:20:02;11.30;99.90
29453;DHT22;16424;50.956;5.320;2022-12-24T02:22:54;11.40;99.90
29453;DHT22;16424;50.956;5.320;2022-12-24T02:27:56;11.10;99.90
29453;DHT22;16424;50.956;5.320;2022-12-24T02:38:14;11.10;99.90
29453;DHT22;16424;50.956;5.320;2022-12-24T02:41:04;11.10;99.90
29453;DHT22;16424;50.956;5.320;2022-12-24T02:43:35;11.00;99.90
29453;DHT22;16424;50.956;5.320;2022-12-24T02:46:23;10.90;99.90
29453;DHT22;16424;50.956;5.320;2022-12-24T02:48:50;10.90;99.90
29453;DHT22;16424;50.956;5.320;2022-12-24T02:51:16;10.90;99.90
29453;DHT22;16424;50.956;5.320;2022-12-24T02:53:46;10.80;99.90
29453;DHT22;16424;50.956;5.320;2022-12-24T03:13:06;11.20;99.90
29453;DHT22;16424;50.956;5.320;2022-12-24T03:15:34;11.20;99.90
29453;DHT22;16424;50.956;5.320;2022-12-24T03:18:02;11.10;99.90
29453;DHT22;16424;50.956;5.320;2022-12-24T03:20:57;11.10;99.90
29453;DHT22;16424;50.956;5.320;2022-12-24T03:23:24;11.20;99.90
29453;DHT22;16424;50.956;5.320;2022-12-24T03:25:50;11.10;99.90
29453;DHT22;16424;50.956;5.320;2022-12-24T03:28:17;11.10;99.90
29453;DHT22;16424;50.956;5.320;2022-12-24T03:30:46;11.00;99.90
29453;DHT22;16424;50.956;5.320;2022-12-24T03:33:13;11.10;99.90
29453;DHT22;16424;50.956;5.320;2022-12-24T03:35:39;11.20;99.90
29453;DHT22;16424;50.956;5.320;2022-12-24T03:38:05;11.20;99.90
29453;DHT22;16424;50.956;5.320;2022-12-24T03:40:31;11.20;99.90
29453;DHT22;16424;50.956;5.320;2022-12-24T03:42:57;11.20;99.90
29453;DHT22;16424;50.956;5.320;2022-12-24T03:45:22;11.20;99.90
29453;DHT22;16424;50.956;5.320;2022-12-24T03:47:48;11.20;99.90
29453;DHT22;16424;50.956;5.320;2022-12-24T03:50:14;11.20;99.90
29453;DHT22;16424;50.956;5.320;2022-12-24T03:52:39;11.20;99.90
29453;DHT22;16424;50.956;5.320;2022-12-24T03:55:05;11.10;99.90
29453;DHT22;16424;50.956;5.320;2022-12-24T03:57:31;11.10;99.90
29453;DHT22;16424;50.956;5.320;2022-12-24T03:59:56;11.10;99.90
29453;DHT22;16424;50.956;5.320;2022-12-24T04:02:22;11.20;99.90
29453;DHT22;16424;50.956;5.320;2022-12-24T04:04:48;11.30;99.90
29453;DHT22;16424;50.956;5.320;2022-12-24T04:07:13;11.20;99.90
29453;DHT22;16424;50.956;5.320;2022-12-24T04:09:39;11.10;99.90
29453;DHT22;16424;50.956;5.320;2022-12-24T04:12:05;11.10;99.90
29453;DHT22;16424;50.956;5.320;2022-12-24T04:14:31;11.10;99.90
29453;DHT22;16424;50.956;5.320;2022-12-24T04:16:56;11.20;99.90
29453;DHT22;16424;50.956;5.320;2022-12-24T04:19:22;11.20;99.90
29453;DHT22;16424;50.956;5.320;2022-12-24T04:21:48;11.10;99.90
29453;DHT22;16424;50.956;5.320;2022-12-24T04:24:13;11.20;99.90
29453;DHT22;16424;50.956;5.320;2022-12-24T04:26:39;11.20;99.90
29453;DHT22;16424;50.956;5.320;2022-12-24T04:29:05;11.30;99.90
29453;DHT22;16424;50.956;5.320;2022-12-24T04:31:30;11.40;99.90
29453;DHT22;16424;50.956;5.320;2022-12-24T04:33:56;11.40;99.90
29453;DHT22;16424;50.956;5.320;2022-12-24T04:36:22;11.30;99.90
29453;DHT22;16424;50.956;5.320;2022-12-24T04:38:48;11.20;99.90
29453;DHT22;16424;50.956;5.320;2022-12-24T04:41:16;11.30;99.90
29453;DHT22;16424;50.956;5.320;2022-12-24T04:43:43;11.20;99.90
29453;DHT22;16424;50.956;5.320;2022-12-24T04:46:11;11.20;99.90
29453;DHT22;16424;50.956;5.320;2022-12-24T04:48:39;11.30;99.90
29453;DHT22;16424;50.956;5.320;2022-12-24T04:51:06;11.30;99.90
29453;DHT22;16424;50.956;5.320;2022-12-24T04:53:33;11.40;99.90
29453;DHT22;16424;50.956;5.320;2022-12-24T04:55:59;11.40;99.90
29453;DHT22;16424;50.956;5.320;2022-12-24T04:58:25;11.40;99.90
29453;DHT22;16424;50.956;5.320;2022-12-24T05:00:52;11.40;99.90
29453;DHT22;16424;50.956;5.320;2022-12-24T05:03:17;11.30;99.90
29453;DHT22;16424;50.956;5.320;2022-12-24T05:05:43;11.20;99.90
29453;DHT22;16424;50.956;5.320;2022-12-24T05:08:09;11.20;99.90
29453;DHT22;16424;50.956;5.320;2022-12-24T05:10:35;11.20;99.90
29453;DHT22;16424;50.956;5.320;2022-12-24T05:13:00;11.20;99.90
29453;DHT22;16424;50.956;5.320;2022-12-24T05:15:26;11.10;99.90
29453;DHT22;16424;50.956;5.320;2022-12-24T05:17:52;11.10;99.90
29453;DHT22;16424;50.956;5.320;2022-12-24T05:20:17;11.00;99.90
29453;DHT22;16424;50.956;5.320;2022-12-24T05:22:43;11.00;99.90
29453;DHT22;16424;50.956;5.320;2022-12-24T05:25:37;10.90;99.90
29453;DHT22;16424;50.956;5.320;2022-12-24T05:28:22;10.90;99.90
29453;DHT22;16424;50.956;5.320;2022-12-24T05:30:48;11.00;99.90
29453;DHT22;16424;50.956;5.320;2022-12-24T05:33:14;11.10;99.90
29453;DHT22;16424;50.956;5.320;2022-12-24T05:35:39;11.00;99.90
29453;DHT22;16424;50.956;5.320;2022-12-24T05:38:05;11.10;99.90
29453;DHT22;16424;50.956;5.320;2022-12-24T05:40:31;11.20;99.90
29453;DHT22;16424;50.956;5.320;2022-12-24T05:42:56;11.20;99.90
29453;DHT22;16424;50.956;5.320;2022-12-24T05:45:22;11.10;99.90
29453;DHT22;16424;50.956;5.320;2022-12-24T05:47:48;11.10;99.90
29453;DHT22;16424;50.956;5.320;2022-12-24T05:50:13;11.00;99.90
29453;DHT22;16424;50.956;5.320;2022-12-24T05:52:39;11.00;99.90
29453;DHT22;16424;50.956;5.320;2022-12-24T05:55:05;11.10;99.90
29453;DHT22;16424;50.956;5.320;2022-12-24T05:57:31;11.00;99.90
29453;DHT22;16424;50.956;5.320;2022-12-24T05:59:56;11.10;99.90
29453;DHT22;16424;50.956;5.320;2022-12-24T06:02:22;11.20;99.90
29453;DHT22;16424;50.956;5.320;2022-12-24T06:04:48;11.30;99.90
29453;DHT22;16424;50.956;5.320;2022-12-24T06:07:13;11.30;99.90
29453;DHT22;16424;50.956;5.320;2022-12-24T06:09:39;11.20;99.90
29453;DHT22;16424;50.956;5.320;2022-12-24T06:12:05;11.40;99.90
29453;DHT22;16424;50.956;5.320;2022-12-24T06:14:30;11.40;99.90
29453;DHT22;16424;50.956;5.320;2022-12-24T06:16:56;11.50;99.90
29453;DHT22;16424;50.956;5.320;2022-12-24T06:19:22;11.50;99.90
29453;DHT22;16424;50.956;5.320;2022-12-24T06:21:48;11.40;99.90
29453;DHT22;16424;50.956;5.320;2022-12-24T06:24:13;11.40;99.90
29453;DHT22;16424;50.956;5.320;2022-12-24T06:26:39;11.30;99.90
29453;DHT22;16424;50.956;5.320;2022-12-24T06:29:05;11.20;99.90
29453;DHT22;16424;50.956;5.320;2022-12-24T06:31:31;11.20;99.90
29453;DHT22;16424;50.956;5.320;2022-12-24T06:33:57;11.30;99.90
29453;DHT22;16424;50.956;5.320;2022-12-24T06:36:24;11.20;99.90
29453;DHT22;16424;50.956;5.320;2022-12-24T06:38:51;11.10;99.90
29453;DHT22;16424;50.956;5.320;2022-12-24T06:41:18;11.10;99.90
29453;DHT22;16424;50.956;5.320;2022-12-24T06:43:45;11.10;99.90
29453;DHT22;16424;50.956;5.320;2022-12-24T06:46:11;11.10;99.90
29453;DHT22;16424;50.956;5.320;2022-12-24T06:48:37;11.10;99.90
29453;DHT22;16424;50.956;5.320;2022-12-24T06:51:03;11.30;99.90
29453;DHT22;16424;50.956;5.320;2022-12-24T06:53:29;11.40;99.90
29453;DHT22;16424;50.956;5.320;2022-12-24T06:56:03;11.40;99.90
29453;DHT22;16424;50.956;5.320;2022-12-24T06:58:29;11.40;99.90
29453;DHT22;16424;50.956;5.320;2022-12-24T07:00:55;11.40;99.90
29453;DHT22;16424;50.956;5.320;2022-12-24T07:03:21;11.40;99.90
29453;DHT22;16424;50.956;5.320;2022-12-24T07:05:46;11.40;99.90
29453;DHT22;16424;50.956;5.320;2022-12-24T07:08:12;11.50;99.90
29453;DHT22;16424;50.956;5.320;2022-12-24T07:10:38;11.40;99.90
29453;DHT22;16424;50.956;5.320;2022-12-24T07:13:03;11.40;99.90
29453;DHT22;16424;50.956;5.320;2022-12-24T07:15:29;11.30;99.90
29453;DHT22;16424;50.956;5.320;2022-12-24T07:17:55;11.30;99.90
29453;DHT22;16424;50.956;5.320;2022-12-24T07:20:21;11.40;99.90
29453;DHT22;16424;50.956;5.320;2022-12-24T07:22:46;11.20;99.90
29453;DHT22;16424;50.956;5.320;2022-12-24T07:25:13;11.10;99.90
29453;DHT22;16424;50.956;5.320;2022-12-24T07:27:39;11.10;99.90
29453;DHT22;16424;50.956;5.320;2022-12-24T07:30:05;11.00;99.90
29453;DHT22;16424;50.956;5.320;2022-12-24T07:32:32;11.00;99.90
29453;DHT22;16424;50.956;5.320;2022-12-24T07:34:57;11.10;99.90
29453;DHT22;16424;50.956;5.320;2022-12-24T07:37:23;11.00;99.90
29453;DHT22;16424;50.956;5.320;2022-12-24T07:39:49;10.80;99.90
29453;DHT22;16424;50.956;5.320;2022-12-24T07:42:15;10.70;99.90
29453;DHT22;16424;50.956;5.320;2022-12-24T07:44:40;10.70;99.90
29453;DHT22;16424;50.956;5.320;2022-12-24T07:47:06;10.80;99.90
29453;DHT22;16424;50.956;5.320;2022-12-24T07:49:31;10.80;99.90
29453;DHT22;16424;50.956;5.320;2022-12-24T07:51:57;10.90;99.90
29453;DHT22;16424;50.956;5.320;2022-12-24T07:54:23;10.90;99.90
29453;DHT22;16424;50.956;5.320;2022-12-24T07:56:48;10.90;99.90
29453;DHT22;16424;50.956;5.320;2022-12-24T07:59:14;10.90;99.90
29453;DHT22;16424;50.956;5.320;2022-12-24T08:01:40;10.90;99.90
29453;DHT22;16424;50.956;5.320;2022-12-24T08:04:05;11.00;99.90
29453;DHT22;16424;50.956;5.320;2022-12-24T08:06:31;10.90;99.90
29453;DHT22;16424;50.956;5.320;2022-12-24T08:08:57;11.20;99.90
29453;DHT22;16424;50.956;5.320;2022-12-24T08:11:22;11.20;99.90
29453;DHT22;16424;50.956;5.320;2022-12-24T08:13:48;11.20;99.90
29453;DHT22;16424;50.956;5.320;2022-12-24T08:16:14;11.10;99.90
29453;DHT22;16424;50.956;5.320;2022-12-24T08:18:39;11.20;99.90
29453;DHT22;16424;50.956;5.320;2022-12-24T08:21:08;11.30;99.90
29453;DHT22;16424;50.956;5.320;2022-12-24T08:23:37;11.30;99.90
29453;DHT22;16424;50.956;5.320;2022-12-24T08:26:06;11.40;99.90
29453;DHT22;16424;50.956;5.320;2022-12-24T08:28:32;11.50;99.90
29453;DHT22;16424;50.956;5.320;2022-12-24T08:30:58;11.50;99.90
29453;DHT22;16424;50.956;5.320;2022-12-24T08:33:24;11.40;99.90
29453;DHT22;16424;50.956;5.320;2022-12-24T08:35:51;11.50;99.90
29453;DHT22;16424;50.956;5.320;2022-12-24T08:38:18;11.40;99.90
29453;DHT22;16424;50.956;5.320;2022-12-24T08:40:44;11.60;99.90
29453;DHT22;16424;50.956;5.320;2022-12-24T08:43:13;11.70;99.90
29453;DHT22;16424;50.956;5.320;2022-12-24T08:45:39;11.70;99.90
29453;DHT22;16424;50.956;5.320;2022-12-24T08:48:06;11.60;99.90
29453;DHT22;16424;50.956;5.320;2022-12-24T08:50:32;11.70;99.90
29453;DHT22;16424;50.956;5.320;2022-12-24T08:52:58;11.60;99.90
29453;DHT22;16424;50.956;5.320;2022-12-24T08:55:24;11.60;99.90
29453;DHT22;16424;50.956;5.320;2022-12-24T08:57:50;11.60;99.90
29453;DHT22;16424;50.956;5.320;2022-12-24T09:00:16;11.70;99.90
29453;DHT22;16424;50.956;5.320;2022-12-24T09:02:42;11.70;99.90
29453;DHT22;16424;50.956;5.320;2022-12-24T09:05:08;11.70;99.90
29453;DHT22;16424;50.956;5.320;2022-12-24T09:07:33;11.70;99.90
29453;DHT22;16424;50.956;5.320;2022-12-24T09:09:59;11.70;99.90
29453;DHT22;16424;50.956;5.320;2022-12-24T09:12:25;11.80;99.90
29453;DHT22;16424;50.956;5.320;2022-12-24T09:14:51;11.80;99.90
29453;DHT22;16424;50.956;5.320;2022-12-24T09:17:19;11.70;99.90
29453;DHT22;16424;50.956;5.320;2022-12-24T09:19:45;11.90;99.90
29453;DHT22;16424;50.956;5.320;2022-12-24T09:22:11;11.90;99.90
29453;DHT22;16424;50.956;5.320;2022-12-24T09:24:37;11.80;99.90
29453;DHT22;16424;50.956;5.320;2022-12-24T09:27:03;11.80;99.90
29453;DHT22;16424;50.956;5.320;2022-12-24T09:29:29;11.90;99.90
29453;DHT22;16424;50.956;5.320;2022-12-24T09:31:55;11.90;99.90
29453;DHT22;16424;50.956;5.320;2022-12-24T09:34:22;11.90;99.90
29453;DHT22;16424;50.956;5.320;2022-12-24T09:36:48;11.80;99.90
29453;DHT22;16424;50.956;5.320;2022-12-24T09:39:14;11.70;99.90
29453;DHT22;16424;50.956;5.320;2022-12-24T09:42:06;11.70;99.90
29453;DHT22;16424;50.956;5.320;2022-12-24T09:49:53;11.80;99.90
29453;DHT22;16424;50.956;5.320;2022-12-24T09:52:35;11.90;99.90
29453;DHT22;16424;50.956;5.320;2022-12-24T09:55:16;11.80;99.90
29453;DHT22;16424;50.956;5.320;2022-12-24T09:57:45;11.80;99.90
29453;DHT22;16424;50.956;5.320;2022-12-24T10:00:25;11.80;99.90
29453;DHT22;16424;50.956;5.320;2022-12-24T10:02:51;11.80;99.90
29453;DHT22;16424;50.956;5.320;2022-12-24T10:05:40;11.90;99.90
29453;DHT22;16424;50.956;5.320;2022-12-24T10:08:18;11.90;99.90
29453;DHT22;16424;50.956;5.320;2022-12-24T10:10:53;12.00;99.90
29453;DHT22;16424;50.956;5.320;2022-12-24T10:13:31;12.00;99.90
29453;DHT22;16424;50.956;5.320;2022-12-24T10:18:51;12.00;99.90
29453;DHT22;16424;50.956;5.320;2022-12-24T10:21:35;12.10;99.90
29453;DHT22;16424;50.956;5.320;2022-12-24T10:24:18;12.20;99.90
29453;DHT22;16424;50.956;5.320;2022-12-24T10:27:04;12.00;99.90
29453;DHT22;16424;50.956;5.320;2022-12-24T10:29:33;12.20;99.90
29453;DHT22;16424;50.956;5.320;2022-12-24T10:34:39;12.40;99.90
29453;DHT22;16424;50.956;5.320;2022-12-24T10:37:06;12.40;99.90
29453;DHT22;16424;50.956;5.320;2022-12-24T10:39:34;12.40;99.90
29453;DHT22;16424;50.956;5.320;2022-12-24T10:42:00;12.40;99.90
29453;DHT22;16424;50.956;5.320;2022-12-24T10:44:29;12.40;99.90
29453;DHT22;16424;50.956;5.320;2022-12-24T10:46:56;12.40;99.90
29453;DHT22;16424;50.956;5.320;2022-12-24T10:49:56;12.30;99.90
29453;DHT22;16424;50.956;5.320;2022-12-24T10:52:29;12.50;99.90
29453;DHT22;16424;50.956;5.320;2022-12-24T10:57:42;12.40;99.90
29453;DHT22;16424;50.956;5.320;2022-12-24T11:00:20;12.50;99.90
29453;DHT22;16424;50.956;5.320;2022-12-24T11:02:47;12.50;99.90
29453;DHT22;16424;50.956;5.320;2022-12-24T11:05:31;12.50;99.90
29453;DHT22;16424;50.956;5.320;2022-12-24T11:08:01;12.40;99.90
29453;DHT22;16424;50.956;5.320;2022-12-24T11:10:27;12.40;99.90
29453;DHT22;16424;50.956;5.320;2022-12-24T11:12:53;12.40;99.90
29453;DHT22;16424;50.956;5.320;2022-12-24T11:15:23;12.40;99.90
29453;DHT22;16424;50.956;5.320;2022-12-24T11:17:58;12.40;99.90
29453;DHT22;16424;50.956;5.320;2022-12-24T11:20:27;12.40;99.90
29453;DHT22;16424;50.956;5.320;2022-12-24T11:22:54;12.50;99.90
29453;DHT22;16424;50.956;5.320;2022-12-24T11:25:30;12.70;99.90
29453;DHT22;16424;50.956;5.320;2022-12-24T11:28:09;12.80;99.90
29453;DHT22;16424;50.956;5.320;2022-12-24T11:30:35;12.80;99.90
29453;DHT22;16424;50.956;5.320;2022-12-24T11:35:29;12.80;99.90
29453;DHT22;16424;50.956;5.320;2022-12-24T11:40:42;12.50;99.90
29453;DHT22;16424;50.956;5.320;2022-12-24T11:43:18;12.50;99.90
29453;DHT22;16424;50.956;5.320;2022-12-24T11:46:10;12.60;99.90
29453;DHT22;16424;50.956;5.320;2022-12-24T11:48:36;12.60;99.90
29453;DHT22;16424;50.956;5.320;2022-12-24T11:51:08;12.70;99.90
29453;DHT22;16424;50.956;5.320;2022-12-24T11:59:06;13.00;99.90
29453;DHT22;16424;50.956;5.320;2022-12-24T12:04:27;13.20;99.90
29453;DHT22;16424;50.956;5.320;2022-12-24T12:07:03;13.40;99.90
29453;DHT22;16424;50.956;5.320;2022-12-24T12:09:34;13.40;99.90
29453;DHT22;16424;50.956;5.320;2022-12-24T12:12:14;13.20;99.90
29453;DHT22;16424;50.956;5.320;2022-12-24T12:14:52;13.10;99.90
29453;DHT22;16424;50.956;5.320;2022-12-24T12:20:33;13.30;99.90
29453;DHT22;16424;50.956;5.320;2022-12-24T12:25:37;13.50;99.90
29453;DHT22;16424;50.956;5.320;2022-12-24T12:28:27;13.50;99.90
29453;DHT22;16424;50.956;5.320;2022-12-24T12:31:31;13.20;99.90
29453;DHT22;16424;50.956;5.320;2022-12-24T12:36:45;13.30;99.90
29453;DHT22;16424;50.956;5.320;2022-12-24T12:39:11;13.40;99.90
29453;DHT22;16424;50.956;5.320;2022-12-24T12:44:25;13.60;99.90
29453;DHT22;16424;50.956;5.320;2022-12-24T12:49:57;13.80;99.90
29453;DHT22;16424;50.956;5.320;2022-12-24T12:52:57;13.70;99.90
29453;DHT22;16424;50.956;5.320;2022-12-24T12:58:03;14.00;99.90
29453;DHT22;16424;50.956;5.320;2022-12-24T13:00:35;13.80;99.90
29453;DHT22;16424;50.956;5.320;2022-12-24T13:14:42;13.60;99.90
29453;DHT22;16424;50.956;5.320;2022-12-24T13:18:06;13.60;99.90
29453;DHT22;16424;50.956;5.320;2022-12-24T13:20:32;13.80;99.90
29453;DHT22;16424;50.956;5.320;2022-12-24T13:23:10;13.70;99.90
29453;DHT22;16424;50.956;5.320;2022-12-24T13:25:42;13.80;99.90
29453;DHT22;16424;50.956;5.320;2022-12-24T13:30:53;13.70;99.90
29453;DHT22;16424;50.956;5.320;2022-12-24T13:36:10;13.80;99.90
29453;DHT22;16424;50.956;5.320;2022-12-24T13:47:02;13.20;99.90
29453;DHT22;16424;50.956;5.320;2022-12-24T13:49:41;13.20;99.90
29453;DHT22;16424;50.956;5.320;2022-12-24T13:55:01;13.40;99.90
29453;DHT22;16424;50.956;5.320;2022-12-24T13:57:44;13.30;99.90
29453;DHT22;16424;50.956;5.320;2022-12-24T14:03:00;13.30;99.90
29453;DHT22;16424;50.956;5.320;2022-12-24T14:05:49;13.30;99.90
29453;DHT22;16424;50.956;5.320;2022-12-24T14:11:23;13.30;99.90
29453;DHT22;16424;50.956;5.320;2022-12-24T14:18:59;13.70;99.90
29453;DHT22;16424;50.956;5.320;2022-12-24T14:21:34;13.80;99.90
29453;DHT22;16424;50.956;5.320;2022-12-24T14:26:50;13.80;99.90
29453;DHT22;16424;50.956;5.320;2022-12-24T14:29:24;13.60;99.90
29453;DHT22;16424;50.956;5.320;2022-12-24T14:31:55;13.50;99.90
29453;DHT22;16424;50.956;5.320;2022-12-24T14:34:21;13.30;99.90
29453;DHT22;16424;50.956;5.320;2022-12-24T14:36:49;13.30;99.90
29453;DHT22;16424;50.956;5.320;2022-12-24T14:39:33;13.30;99.90
29453;DHT22;16424;50.956;5.320;2022-12-24T14:55:58;12.90;99.90
29453;DHT22;16424;50.956;5.320;2022-12-24T14:58:35;12.90;99.90
29453;DHT22;16424;50.956;5.320;2022-12-24T15:01:17;13.00;99.90
29453;DHT22;16424;50.956;5.320;2022-12-24T15:03:43;13.00;99.90
29453;DHT22;16424;50.956;5.320;2022-12-24T15:06:11;13.00;99.90
29453;DHT22;16424;50.956;5.320;2022-12-24T15:08:42;13.00;99.90
29453;DHT22;16424;50.956;5.320;2022-12-24T15:11:15;13.00;99.90
29453;DHT22;16424;50.956;5.320;2022-12-24T15:13:47;12.90;99.90
29453;DHT22;16424;50.956;5.320;2022-12-24T15:16:21;12.90;99.90
29453;DHT22;16424;50.956;5.320;2022-12-24T15:18:52;12.80;99.90
29453;DHT22;16424;50.956;5.320;2022-12-24T15:21:28;12.80;99.90
29453;DHT22;16424;50.956;5.320;2022-12-24T15:23:54;12.70;99.90
29453;DHT22;16424;50.956;5.320;2022-12-24T15:26:26;12.70;99.90
29453;DHT22;16424;50.956;5.320;2022-12-24T15:28:55;12.70;99.90
29453;DHT22;16424;50.956;5.320;2022-12-24T15:31:23;12.60;99.90
29453;DHT22;16424;50.956;5.320;2022-12-24T15:33:51;12.60;99.90
29453;DHT22;16424;50.956;5.320;2022-12-24T15:36:34;12.50;99.90
29453;DHT22;16424;50.956;5.320;2022-12-24T15:39:12;12.50;99.90
29453;DHT22;16424;50.956;5.320;2022-12-24T15:41:41;12.40;99.90
29453;DHT22;16424;50.956;5.320;2022-12-24T15:44:30;12.40;99.90
29453;DHT22;16424;50.956;5.320;2022-12-24T15:47:00;12.30;99.90
29453;DHT22;16424;50.956;5.320;2022-12-24T15:49:29;12.10;99.90
29453;DHT22;16424;50.956;5.320;2022-12-24T15:52:06;11.90;99.90
29453;DHT22;16424;50.956;5.320;2022-12-24T15:54:32;11.70;99.90
29453;DHT22;16424;50.956;5.320;2022-12-24T15:56:58;11.70;99.90
29453;DHT22;16424;50.956;5.320;2022-12-24T15:59:31;11.70;99.90
29453;DHT22;16424;50.956;5.320;2022-12-24T16:02:42;11.80;99.90
29453;DHT22;16424;50.956;5.320;2022-12-24T16:05:33;11.90;99.90
29453;DHT22;16424;50.956;5.320;2022-12-24T16:08:23;11.90;99.90
29453;DHT22;16424;50.956;5.320;2022-12-24T16:11:18;11.80;99.90
29453;DHT22;16424;50.956;5.320;2022-12-24T16:13:54;11.90;99.90
29453;DHT22;16424;50.956;5.320;2022-12-24T16:16:31;11.80;99.90
29453;DHT22;16424;50.956;5.320;2022-12-24T16:18:59;11.70;99.90
29453;DHT22;16424;50.956;5.320;2022-12-24T16:21:33;11.60;99.90
29453;DHT22;16424;50.956;5.320;2022-12-24T16:24:21;11.70;99.90
29453;DHT22;16424;50.956;5.320;2022-12-24T16:26:48;11.70;99.90
29453;DHT22;16424;50.956;5.320;2022-12-24T16:29:15;11.70;99.90
29453;DHT22;16424;50.956;5.320;2022-12-24T16:31:53;11.70;99.90
29453;DHT22;16424;50.956;5.320;2022-12-24T16:34:23;11.70;99.90
29453;DHT22;16424;50.956;5.320;2022-12-24T16:36:49;11.70;99.90
29453;DHT22;16424;50.956;5.320;2022-12-24T16:39:19;11.70;99.90
29453;DHT22;16424;50.956;5.320;2022-12-24T16:41:49;11.60;99.90
29453;DHT22;16424;50.956;5.320;2022-12-24T16:44:33;11.60;99.90
29453;DHT22;16424;50.956;5.320;2022-12-24T16:46:59;11.60;99.90
29453;DHT22;16424;50.956;5.320;2022-12-24T16:49:26;11.60;99.90
29453;DHT22;16424;50.956;5.320;2022-12-24T16:51:52;11.60;99.90
29453;DHT22;16424;50.956;5.320;2022-12-24T16:54:17;11.50;99.90
29453;DHT22;16424;50.956;5.320;2022-12-24T16:56:43;11.50;99.90
29453;DHT22;16424;50.956;5.320;2022-12-24T16:59:20;11.50;99.90
29453;DHT22;16424;50.956;5.320;2022-12-24T17:01:47;11.50;99.90
29453;DHT22;16424;50.956;5.320;2022-12-24T17:04:13;11.50;99.90
29453;DHT22;16424;50.956;5.320;2022-12-24T17:06:39;11.50;99.90
29453;DHT22;16424;50.956;5.320;2022-12-24T17:09:06;11.50;99.90
29453;DHT22;16424;50.956;5.320;2022-12-24T17:11:32;11.50;99.90
29453;DHT22;16424;50.956;5.320;2022-12-24T17:13:58;11.50;99.90
29453;DHT22;16424;50.956;5.320;2022-12-24T17:16:24;11.50;99.90
29453;DHT22;16424;50.956;5.320;2022-12-24T17:18:49;11.60;99.90
29453;DHT22;16424;50.956;5.320;2022-12-24T17:21:17;11.60;99.90
29453;DHT22;16424;50.956;5.320;2022-12-24T17:23:43;11.60;99.90
29453;DHT22;16424;50.956;5.320;2022-12-24T17:26:12;11.60;99.90
29453;DHT22;16424;50.956;5.320;2022-12-24T17:28:39;11.70;99.90
29453;DHT22;16424;50.956;5.320;2022-12-24T17:31:13;11.60;99.90
29453;DHT22;16424;50.956;5.320;2022-12-24T17:33:40;11.60;99.90
29453;DHT22;16424;50.956;5.320;2022-12-24T17:36:07;11.60;99.90
29453;DHT22;16424;50.956;5.320;2022-12-24T17:38:33;11.60;99.90
29453;DHT22;16424;50.956;5.320;2022-12-24T17:41:02;11.60;99.90
29453;DHT22;16424;50.956;5.320;2022-12-24T17:43:28;11.60;99.90
29453;DHT22;16424;50.956;5.320;2022-12-24T17:45:55;11.60;99.90
29453;DHT22;16424;50.956;5.320;2022-12-24T17:48:20;11.50;99.90
29453;DHT22;16424;50.956;5.320;2022-12-24T17:50:46;11.50;99.90
29453;DHT22;16424;50.956;5.320;2022-12-24T17:53:12;11.50;99.90
29453;DHT22;16424;50.956;5.320;2022-12-24T17:55:41;11.40;99.90
29453;DHT22;16424;50.956;5.320;2022-12-24T17:58:08;11.30;99.90